sensor_id;sensor_type;location;lat;lon;timestamp;temperature;humidity
27978;DHT22;15314;49.248;6.968;2023-02-15T00:00:48;3.40;99.90
27978;DHT22;15314;49.248;6.968;2023-02-15T00:01:49;3.30;99.90
27978;DHT22;15314;49.248;6.968;2023-02-15T00:02:49;3.40;99.90
27978;DHT22;15314;49.248;6.968;2023-02-15T00:03:50;3.20;99.90
27978;DHT22;15314;49.248;6.968;2023-02-15T00:04:51;3.20;99.90
27978;DHT22;15314;49.248;6.968;2023-02-15T00:05:51;3.20;99.90
27978;DHT22;15314;49.248;6.968;2023-02-15T00:06:52;3.10;99.90
27978;DHT22;15314;49.248;6.968;2023-02-15T00:07:52;3.20;99.90
27978;DHT22;15314;49.248;6.968;2023-02-15T00:08:54;3.20;99.90
27978;DHT22;15314;49.248;6.968;2023-02-15T00:09:55;3.20;99.90
27978;DHT22;15314;49.248;6.968;2023-02-15T00:11:09;3.30;99.90
27978;DHT22;15314;49.248;6.968;2023-02-15T00:12:10;3.30;99.90
27978;DHT22;15314;49.248;6.968;2023-02-15T00:13:11;3.30;99.90
27978;DHT22;15314;49.248;6.968;2023-02-15T00:14:17;3.30;99.90
27978;DHT22;15314;49.248;6.968;2023-02-15T00:15:19;3.30;99.90
27978;DHT22;15314;49.248;6.968;2023-02-15T00:16:19;3.30;99.90
27978;DHT22;15314;49.248;6.968;2023-02-15T00:17:22;3.30;99.90
27978;DHT22;15314;49.248;6.968;2023-02-15T00:18:22;3.30;99.90
27978;DHT22;15314;49.248;6.968;2023-02-15T00:19:23;3.30;99.90
27978;DHT22;15314;49.248;6.968;2023-02-15T00:20:23;3.30;99.90
27978;DHT22;15314;49.248;6.968;2023-02-15T00:21:24;3.30;99.90
27978;DHT22;15314;49.248;6.968;2023-02-15T00:22:25;3.30;99.90
27978;DHT22;15314;49.248;6.968;2023-02-15T00:23:26;3.30;99.90
27978;DHT22;15314;49.248;6.968;2023-02-15T00:24:27;3.30;99.90
27978;DHT22;15314;49.248;6.968;2023-02-15T00:25:27;3.30;99.90
27978;DHT22;15314;49.248;6.968;2023-02-15T00:26:29;3.50;99.90
27978;DHT22;15314;49.248;6.968;2023-02-15T00:27:29;3.40;99.90
27978;DHT22;15314;49.248;6.968;2023-02-15T00:28:31;3.40;99.90
27978;DHT22;15314;49.248;6.968;2023-02-15T00:29:32;3.50;99.90
27978;DHT22;15314;49.248;6.968;2023-02-15T00:30:33;3.50;99.90
27978;DHT22;15314;49.248;6.968;2023-02-15T00:31:34;3.40;99.90
27978;DHT22;15314;49.248;6.968;2023-02-15T00:32:34;3.70;99.90
27978;DHT22;15314;49.248;6.968;2023-02-15T00:33:36;3.50;99.90
27978;DHT22;15314;49.248;6.968;2023-02-15T00:34:37;3.70;99.90
27978;DHT22;15314;49.248;6.968;2023-02-15T00:35:37;3.50;99.90
27978;DHT22;15314;49.248;6.968;2023-02-15T00:36:38;3.50;99.90
27978;DHT22;15314;49.248;6.968;2023-02-15T00:37:39;3.50;99.90
27978;DHT22;15314;49.248;6.968;2023-02-15T00:38:39;3.40;99.90
27978;DHT22;15314;49.248;6.968;2023-02-15T00:39:40;3.40;99.90
27978;DHT22;15314;49.248;6.968;2023-02-15T00:40:41;3.50;99.90
27978;DHT22;15314;49.248;6.968;2023-02-15T00:41:41;3.50;99.90
27978;DHT22;15314;49.248;6.968;2023-02-15T00:42:43;3.40;99.90
27978;DHT22;15314;49.248;6.968;2023-02-15T00:43:44;3.40;99.90
27978;DHT22;15314;49.248;6.968;2023-02-15T00:44:45;3.30;99.90
27978;DHT22;15314;49.248;6.968;2023-02-15T00:45:46;3.30;99.90
27978;DHT22;15314;49.248;6.968;2023-02-15T00:46:47;3.30;99.90
27978;DHT22;15314;49.248;6.968;2023-02-15T00:47:47;3.30;99.90
27978;DHT22;15314;49.248;6.968;2023-02-15T00:48:48;3.30;99.90
27978;DHT22;15314;49.248;6.968;2023-02-15T00:49:49;3.40;99.90
27978;DHT22;15314;49.248;6.968;2023-02-15T00:50:52;3.40;99.90
27978;DHT22;15314;49.248;6.968;2023-02-15T00:51:52;3.50;99.90
27978;DHT22;15314;49.248;6.968;2023-02-15T00:52:53;3.50;99.90
27978;DHT22;15314;49.248;6.968;2023-02-15T00:53:54;3.50;99.90
27978;DHT22;15314;49.248;6.968;2023-02-15T00:54:55;3.50;99.90
27978;DHT22;15314;49.248;6.968;2023-02-15T00:55:56;3.50;99.90
27978;DHT22;15314;49.248;6.968;2023-02-15T00:56:57;3.50;99.90
27978;DHT22;15314;49.248;6.968;2023-02-15T00:57:57;3.50;99.90
27978;DHT22;15314;49.248;6.968;2023-02-15T00:58:58;3.50;99.90
27978;DHT22;15314;49.248;6.968;2023-02-15T00:59:59;3.50;99.90
27978;DHT22;15314;49.248;6.968;2023-02-15T01:01:05;3.50;99.90
27978;DHT22;15314;49.248;6.968;2023-02-15T01:02:06;3.50;99.90
27978;DHT22;15314;49.248;6.968;2023-02-15T01:03:07;3.60;99.90
27978;DHT22;15314;49.248;6.968;2023-02-15T01:04:07;3.60;99.90
27978;DHT22;15314;49.248;6.968;2023-02-15T01:05:08;3.60;99.90
27978;DHT22;15314;49.248;6.968;2023-02-15T01:06:09;3.60;99.90
27978;DHT22;15314;49.248;6.968;2023-02-15T01:07:10;3.60;99.90
27978;DHT22;15314;49.248;6.968;2023-02-15T01:08:10;3.60;99.90
27978;DHT22;15314;49.248;6.968;2023-02-15T01:09:11;3.60;99.90
27978;DHT22;15314;49.248;6.968;2023-02-15T01:10:13;3.60;99.90
27978;DHT22;15314;49.248;6.968;2023-02-15T01:11:17;3.60;99.90
27978;DHT22;15314;49.248;6.968;2023-02-15T01:12:23;3.50;99.90
27978;DHT22;15314;49.248;6.968;2023-02-15T01:13:24;3.50;99.90
27978;DHT22;15314;49.248;6.968;2023-02-15T01:14:25;3.50;99.90
27978;DHT22;15314;49.248;6.968;2023-02-15T01:15:25;3.40;99.90
27978;DHT22;15314;49.248;6.968;2023-02-15T01:16:27;3.40;99.90
27978;DHT22;15314;49.248;6.968;2023-02-15T01:17:28;3.40;99.90
27978;DHT22;15314;49.248;6.968;2023-02-15T01:18:29;3.30;99.90
27978;DHT22;15314;49.248;6.968;2023-02-15T01:19:30;3.30;99.90
27978;DHT22;15314;49.248;6.968;2023-02-15T01:20:35;3.30;99.90
27978;DHT22;15314;49.248;6.968;2023-02-15T01:21:37;3.20;99.90
27978;DHT22;15314;49.248;6.968;2023-02-15T01:22:37;3.30;99.90
27978;DHT22;15314;49.248;6.968;2023-02-15T01:23:38;3.50;99.90
27978;DHT22;15314;49.248;6.968;2023-02-15T01:24:39;3.30;99.90
27978;DHT22;15314;49.248;6.968;2023-02-15T01:25:39;3.20;99.90
27978;DHT22;15314;49.248;6.968;2023-02-15T01:26:40;3.30;99.90
27978;DHT22;15314;49.248;6.968;2023-02-15T01:27:40;3.30;99.90
27978;DHT22;15314;49.248;6.968;2023-02-15T01:28:41;3.40;99.90
27978;DHT22;15314;49.248;6.968;2023-02-15T01:29:42;3.40;99.90
27978;DHT22;15314;49.248;6.968;2023-02-15T01:30:43;3.40;99.90
27978;DHT22;15314;49.248;6.968;2023-02-15T01:31:45;3.40;99.90
27978;DHT22;15314;49.248;6.968;2023-02-15T01:32:46;3.50;99.90
27978;DHT22;15314;49.248;6.968;2023-02-15T01:33:47;3.40;99.90
27978;DHT22;15314;49.248;6.968;2023-02-15T01:34:48;3.60;99.90
27978;DHT22;15314;49.248;6.968;2023-02-15T01:35:49;3.40;99.90
27978;DHT22;15314;49.248;6.968;2023-02-15T01:36:55;3.40;99.90
27978;DHT22;15314;49.248;6.968;2023-02-15T01:37:56;3.20;99.90
27978;DHT22;15314;49.248;6.968;2023-02-15T01:38:57;3.20;99.90
27978;DHT22;15314;49.248;6.968;2023-02-15T01:39:58;3.20;99.90
27978;DHT22;15314;49.248;6.968;2023-02-15T01:41:00;3.30;99.90
27978;DHT22;15314;49.248;6.968;2023-02-15T01:42:23;3.10;99.90
27978;DHT22;15314;49.248;6.968;2023-02-15T01:43:40;3.30;99.90
27978;DHT22;15314;49.248;6.968;2023-02-15T01:44:58;3.30;99.90
27978;DHT22;15314;49.248;6.968;2023-02-15T01:45:59;3.30;99.90
27978;DHT22;15314;49.248;6.968;2023-02-15T01:46:59;3.30;99.90
27978;DHT22;15314;49.248;6.968;2023-02-15T01:48:05;3.20;99.90
27978;DHT22;15314;49.248;6.968;2023-02-15T01:49:13;3.30;99.90
27978;DHT22;15314;49.248;6.968;2023-02-15T01:50:18;3.30;99.90
27978;DHT22;15314;49.248;6.968;2023-02-15T01:51:23;3.30;99.90
27978;DHT22;15314;49.248;6.968;2023-02-15T01:52:24;3.30;99.90
27978;DHT22;15314;49.248;6.968;2023-02-15T01:53:29;3.30;99.90
27978;DHT22;15314;49.248;6.968;2023-02-15T01:54:32;3.20;99.90
27978;DHT22;15314;49.248;6.968;2023-02-15T01:55:49;3.20;99.90
27978;DHT22;15314;49.248;6.968;2023-02-15T01:56:50;3.20;99.90
27978;DHT22;15314;49.248;6.968;2023-02-15T01:57:51;3.10;99.90
27978;DHT22;15314;49.248;6.968;2023-02-15T01:58:54;3.00;99.90
27978;DHT22;15314;49.248;6.968;2023-02-15T01:59:58;3.00;99.90
27978;DHT22;15314;49.248;6.968;2023-02-15T02:01:00;3.20;99.90
27978;DHT22;15314;49.248;6.968;2023-02-15T02:02:02;3.20;99.90
27978;DHT22;15314;49.248;6.968;2023-02-15T02:03:04;3.20;99.90
27978;DHT22;15314;49.248;6.968;2023-02-15T02:04:22;3.20;99.90
27978;DHT22;15314;49.248;6.968;2023-02-15T02:05:25;3.10;99.90
27978;DHT22;15314;49.248;6.968;2023-02-15T02:06:26;3.10;99.90
27978;DHT22;15314;49.248;6.968;2023-02-15T02:07:29;3.20;99.90
27978;DHT22;15314;49.248;6.968;2023-02-15T02:08:33;3.10;99.90
27978;DHT22;15314;49.248;6.968;2023-02-15T02:09:35;3.20;99.90
27978;DHT22;15314;49.248;6.968;2023-02-15T02:10:36;3.20;99.90
27978;DHT22;15314;49.248;6.968;2023-02-15T02:11:39;3.20;99.90
27978;DHT22;15314;49.248;6.968;2023-02-15T02:12:42;3.20;99.90
27978;DHT22;15314;49.248;6.968;2023-02-15T02:13:44;3.20;99.90
27978;DHT22;15314;49.248;6.968;2023-02-15T02:14:47;3.20;99.90
27978;DHT22;15314;49.248;6.968;2023-02-15T02:16:00;3.10;99.90
27978;DHT22;15314;49.248;6.968;2023-02-15T02:26:37;3.10;99.90
27978;DHT22;15314;49.248;6.968;2023-02-15T02:27:56;2.90;99.90
27978;DHT22;15314;49.248;6.968;2023-02-15T02:29:31;2.90;99.90
27978;DHT22;15314;49.248;6.968;2023-02-15T02:34:33;2.80;99.90
27978;DHT22;15314;49.248;6.968;2023-02-15T02:36:00;2.90;99.90
27978;DHT22;15314;49.248;6.968;2023-02-15T02:40:36;2.80;99.90
27978;DHT22;15314;49.248;6.968;2023-02-15T02:42:02;2.80;99.90
27978;DHT22;15314;49.248;6.968;2023-02-15T02:43:21;2.80;99.90
27978;DHT22;15314;49.248;6.968;2023-02-15T02:44:48;2.90;99.90
27978;DHT22;15314;49.248;6.968;2023-02-15T02:46:00;2.80;99.90
27978;DHT22;15314;49.248;6.968;2023-02-15T02:47:18;2.80;99.90
27978;DHT22;15314;49.248;6.968;2023-02-15T02:48:23;2.80;99.90
27978;DHT22;15314;49.248;6.968;2023-02-15T02:49:43;2.80;99.90
27978;DHT22;15314;49.248;6.968;2023-02-15T02:50:44;2.80;99.90
27978;DHT22;15314;49.248;6.968;2023-02-15T02:51:45;2.80;99.90
27978;DHT22;15314;49.248;6.968;2023-02-15T02:52:47;2.80;99.90
27978;DHT22;15314;49.248;6.968;2023-02-15T02:53:55;2.80;99.90
27978;DHT22;15314;49.248;6.968;2023-02-15T02:54:57;2.80;99.90
27978;DHT22;15314;49.248;6.968;2023-02-15T02:56:44;2.70;99.90
27978;DHT22;15314;49.248;6.968;2023-02-15T02:57:26;2.70;99.90
27978;DHT22;15314;49.248;6.968;2023-02-15T02:58:44;2.60;99.90
27978;DHT22;15314;49.248;6.968;2023-02-15T02:59:47;2.60;99.90
27978;DHT22;15314;49.248;6.968;2023-02-15T03:01:03;2.70;99.90
27978;DHT22;15314;49.248;6.968;2023-02-15T03:02:19;2.60;99.90
27978;DHT22;15314;49.248;6.968;2023-02-15T03:03:30;2.70;99.90
27978;DHT22;15314;49.248;6.968;2023-02-15T03:04:35;2.80;99.90
27978;DHT22;15314;49.248;6.968;2023-02-15T03:05:41;2.80;99.90
27978;DHT22;15314;49.248;6.968;2023-02-15T03:06:55;2.80;99.90
27978;DHT22;15314;49.248;6.968;2023-02-15T03:07:58;2.90;99.90
27978;DHT22;15314;49.248;6.968;2023-02-15T03:09:15;2.90;99.90
27978;DHT22;15314;49.248;6.968;2023-02-15T03:10:20;2.80;99.90
27978;DHT22;15314;49.248;6.968;2023-02-15T03:11:21;2.80;99.90
27978;DHT22;15314;49.248;6.968;2023-02-15T03:12:26;2.80;99.90
27978;DHT22;15314;49.248;6.968;2023-02-15T03:13:29;2.70;99.90
27978;DHT22;15314;49.248;6.968;2023-02-15T03:14:30;2.70;99.90
27978;DHT22;15314;49.248;6.968;2023-02-15T03:15:34;2.60;99.90
27978;DHT22;15314;49.248;6.968;2023-02-15T03:16:56;2.70;99.90
27978;DHT22;15314;49.248;6.968;2023-02-15T03:18:00;2.70;99.90
27978;DHT22;15314;49.248;6.968;2023-02-15T03:19:10;2.80;99.90
27978;DHT22;15314;49.248;6.968;2023-02-15T03:20:20;2.80;99.90
27978;DHT22;15314;49.248;6.968;2023-02-15T03:21:26;2.80;99.90
27978;DHT22;15314;49.248;6.968;2023-02-15T03:22:35;2.80;99.90
27978;DHT22;15314;49.248;6.968;2023-02-15T03:23:37;2.80;99.90
27978;DHT22;15314;49.248;6.968;2023-02-15T03:24:46;2.70;99.90
27978;DHT22;15314;49.248;6.968;2023-02-15T03:25:56;2.70;99.90
27978;DHT22;15314;49.248;6.968;2023-02-15T03:26:58;2.70;99.90
27978;DHT22;15314;49.248;6.968;2023-02-15T03:28:03;2.70;99.90
27978;DHT22;15314;49.248;6.968;2023-02-15T03:29:06;2.80;99.90
27978;DHT22;15314;49.248;6.968;2023-02-15T03:30:09;2.80;99.90
27978;DHT22;15314;49.248;6.968;2023-02-15T03:31:13;2.90;99.90
27978;DHT22;15314;49.248;6.968;2023-02-15T03:32:14;2.80;99.90
27978;DHT22;15314;49.248;6.968;2023-02-15T03:33:15;2.80;99.90
27978;DHT22;15314;49.248;6.968;2023-02-15T03:34:17;2.80;99.90
27978;DHT22;15314;49.248;6.968;2023-02-15T03:35:21;2.80;99.90
27978;DHT22;15314;49.248;6.968;2023-02-15T03:37:51;2.80;99.90
27978;DHT22;15314;49.248;6.968;2023-02-15T03:41:50;2.80;99.90
27978;DHT22;15314;49.248;6.968;2023-02-15T03:43:17;2.80;99.90
27978;DHT22;15314;49.248;6.968;2023-02-15T03:44:26;2.80;99.90
27978;DHT22;15314;49.248;6.968;2023-02-15T03:45:30;2.80;99.90
27978;DHT22;15314;49.248;6.968;2023-02-15T03:46:47;2.80;99.90
27978;DHT22;15314;49.248;6.968;2023-02-15T03:47:50;2.80;99.90
27978;DHT22;15314;49.248;6.968;2023-02-15T03:48:56;2.80;99.90
27978;DHT22;15314;49.248;6.968;2023-02-15T03:50:20;2.80;99.90
27978;DHT22;15314;49.248;6.968;2023-02-15T03:51:43;2.80;99.90
27978;DHT22;15314;49.248;6.968;2023-02-15T03:52:47;2.70;99.90
27978;DHT22;15314;49.248;6.968;2023-02-15T03:53:49;2.70;99.90
27978;DHT22;15314;49.248;6.968;2023-02-15T03:54:51;2.70;99.90
27978;DHT22;15314;49.248;6.968;2023-02-15T03:55:55;2.70;99.90
27978;DHT22;15314;49.248;6.968;2023-02-15T03:56:57;2.80;99.90
27978;DHT22;15314;49.248;6.968;2023-02-15T03:58:17;2.80;99.90
27978;DHT22;15314;49.248;6.968;2023-02-15T03:59:37;2.80;99.90
27978;DHT22;15314;49.248;6.968;2023-02-15T04:00:59;2.90;99.90
27978;DHT22;15314;49.248;6.968;2023-02-15T04:02:24;2.80;99.90
27978;DHT22;15314;49.248;6.968;2023-02-15T04:04:38;2.70;99.90
27978;DHT22;15314;49.248;6.968;2023-02-15T04:05:40;2.60;99.90
27978;DHT22;15314;49.248;6.968;2023-02-15T04:06:41;2.60;99.90
27978;DHT22;15314;49.248;6.968;2023-02-15T04:07:42;2.60;99.90
27978;DHT22;15314;49.248;6.968;2023-02-15T04:08:43;2.70;99.90
27978;DHT22;15314;49.248;6.968;2023-02-15T04:10:02;2.60;99.90
27978;DHT22;15314;49.248;6.968;2023-02-15T04:11:21;2.70;99.90
27978;DHT22;15314;49.248;6.968;2023-02-15T04:12:22;2.70;99.90
27978;DHT22;15314;49.248;6.968;2023-02-15T04:13:29;2.90;99.90
27978;DHT22;15314;49.248;6.968;2023-02-15T04:14:30;2.80;99.90
27978;DHT22;15314;49.248;6.968;2023-02-15T04:15:50;2.80;99.90
27978;DHT22;15314;49.248;6.968;2023-02-15T04:17:07;2.80;99.90
27978;DHT22;15314;49.248;6.968;2023-02-15T04:18:08;2.90;99.90
27978;DHT22;15314;49.248;6.968;2023-02-15T04:19:09;2.90;99.90
27978;DHT22;15314;49.248;6.968;2023-02-15T04:20:28;3.00;99.90
27978;DHT22;15314;49.248;6.968;2023-02-15T04:21:47;2.80;99.90
27978;DHT22;15314;49.248;6.968;2023-02-15T04:23:07;2.70;99.90
27978;DHT22;15314;49.248;6.968;2023-02-15T04:24:26;2.70;99.90
27978;DHT22;15314;49.248;6.968;2023-02-15T04:25:45;2.70;99.90
27978;DHT22;15314;49.248;6.968;2023-02-15T04:26:46;2.60;99.90
27978;DHT22;15314;49.248;6.968;2023-02-15T04:27:50;2.60;99.90
27978;DHT22;15314;49.248;6.968;2023-02-15T04:28:51;2.60;99.90
27978;DHT22;15314;49.248;6.968;2023-02-15T04:29:52;2.50;99.90
27978;DHT22;15314;49.248;6.968;2023-02-15T04:30:52;2.50;99.90
27978;DHT22;15314;49.248;6.968;2023-02-15T04:31:55;2.30;99.90
27978;DHT22;15314;49.248;6.968;2023-02-15T04:32:56;2.30;99.90
27978;DHT22;15314;49.248;6.968;2023-02-15T04:33:57;2.10;99.90
27978;DHT22;15314;49.248;6.968;2023-02-15T04:34:58;2.10;99.90
27978;DHT22;15314;49.248;6.968;2023-02-15T04:35:58;2.10;99.90
27978;DHT22;15314;49.248;6.968;2023-02-15T04:36:59;2.00;99.90
27978;DHT22;15314;49.248;6.968;2023-02-15T04:38:00;2.00;99.90
27978;DHT22;15314;49.248;6.968;2023-02-15T04:39:00;2.00;99.90
27978;DHT22;15314;49.248;6.968;2023-02-15T04:40:02;2.10;99.90
27978;DHT22;15314;49.248;6.968;2023-02-15T04:41:03;2.20;99.90
27978;DHT22;15314;49.248;6.968;2023-02-15T04:42:03;2.20;99.90
27978;DHT22;15314;49.248;6.968;2023-02-15T04:43:04;2.30;99.90
27978;DHT22;15314;49.248;6.968;2023-02-15T04:44:05;2.40;99.90
27978;DHT22;15314;49.248;6.968;2023-02-15T04:45:06;2.40;99.90
27978;DHT22;15314;49.248;6.968;2023-02-15T04:46:06;2.50;99.90
27978;DHT22;15314;49.248;6.968;2023-02-15T04:47:07;2.50;99.90
27978;DHT22;15314;49.248;6.968;2023-02-15T04:48:08;2.70;99.90
27978;DHT22;15314;49.248;6.968;2023-02-15T04:49:08;2.50;99.90
27978;DHT22;15314;49.248;6.968;2023-02-15T04:50:10;2.50;99.90
27978;DHT22;15314;49.248;6.968;2023-02-15T04:51:11;2.50;99.90
27978;DHT22;15314;49.248;6.968;2023-02-15T04:52:11;2.40;99.90
27978;DHT22;15314;49.248;6.968;2023-02-15T04:53:12;2.30;99.90
27978;DHT22;15314;49.248;6.968;2023-02-15T04:54:13;2.30;99.90
27978;DHT22;15314;49.248;6.968;2023-02-15T04:55:14;2.20;99.90
27978;DHT22;15314;49.248;6.968;2023-02-15T04:56:15;2.20;99.90
27978;DHT22;15314;49.248;6.968;2023-02-15T04:57:15;2.10;99.90
27978;DHT22;15314;49.248;6.968;2023-02-15T04:58:16;2.00;99.90
27978;DHT22;15314;49.248;6.968;2023-02-15T04:59:17;2.10;99.90
27978;DHT22;15314;49.248;6.968;2023-02-15T05:00:17;2.10;99.90
27978;DHT22;15314;49.248;6.968;2023-02-15T05:01:18;2.00;99.90
27978;DHT22;15314;49.248;6.968;2023-02-15T05:02:19;2.00;99.90
27978;DHT22;15314;49.248;6.968;2023-02-15T05:03:19;1.90;99.90
27978;DHT22;15314;49.248;6.968;2023-02-15T05:04:20;1.90;99.90
27978;DHT22;15314;49.248;6.968;2023-02-15T05:05:21;1.80;99.90
27978;DHT22;15314;49.248;6.968;2023-02-15T05:06:21;1.70;99.90
27978;DHT22;15314;49.248;6.968;2023-02-15T05:07:22;1.80;99.90
27978;DHT22;15314;49.248;6.968;2023-02-15T05:08:22;1.90;99.90
27978;DHT22;15314;49.248;6.968;2023-02-15T05:09:24;1.80;99.90
27978;DHT22;15314;49.248;6.968;2023-02-15T05:10:24;1.80;99.90
27978;DHT22;15314;49.248;6.968;2023-02-15T05:11:26;1.80;99.90
27978;DHT22;15314;49.248;6.968;2023-02-15T05:12:27;1.80;99.90
27978;DHT22;15314;49.248;6.968;2023-02-15T05:13:27;1.90;99.90
27978;DHT22;15314;49.248;6.968;2023-02-15T05:14:28;1.80;99.90
27978;DHT22;15314;49.248;6.968;2023-02-15T05:15:28;1.80;99.90
27978;DHT22;15314;49.248;6.968;2023-02-15T05:16:29;1.90;99.90
27978;DHT22;15314;49.248;6.968;2023-02-15T05:17:30;1.90;99.90
27978;DHT22;15314;49.248;6.968;2023-02-15T05:18:30;2.00;99.90
27978;DHT22;15314;49.248;6.968;2023-02-15T05:19:31;1.90;99.90
27978;DHT22;15314;49.248;6.968;2023-02-15T05:20:32;1.80;99.90
27978;DHT22;15314;49.248;6.968;2023-02-15T05:21:32;1.70;99.90
27978;DHT22;15314;49.248;6.968;2023-02-15T05:22:33;1.70;99.90
27978;DHT22;15314;49.248;6.968;2023-02-15T05:23:34;1.80;99.90
27978;DHT22;15314;49.248;6.968;2023-02-15T05:24:35;1.80;99.90
27978;DHT22;15314;49.248;6.968;2023-02-15T05:25:54;1.70;99.90
27978;DHT22;15314;49.248;6.968;2023-02-15T05:27:13;1.70;99.90
27978;DHT22;15314;49.248;6.968;2023-02-15T05:28:33;1.80;99.90
27978;DHT22;15314;49.248;6.968;2023-02-15T05:29:34;1.60;99.90
27978;DHT22;15314;49.248;6.968;2023-02-15T05:30:35;1.60;99.90
27978;DHT22;15314;49.248;6.968;2023-02-15T05:31:36;1.70;99.90
27978;DHT22;15314;49.248;6.968;2023-02-15T05:32:37;1.70;99.90
27978;DHT22;15314;49.248;6.968;2023-02-15T05:33:39;1.70;99.90
27978;DHT22;15314;49.248;6.968;2023-02-15T05:34:39;1.70;99.90
27978;DHT22;15314;49.248;6.968;2023-02-15T05:35:40;1.70;99.90
27978;DHT22;15314;49.248;6.968;2023-02-15T05:36:41;1.70;99.90
27978;DHT22;15314;49.248;6.968;2023-02-15T05:37:41;1.60;99.90
27978;DHT22;15314;49.248;6.968;2023-02-15T05:38:43;1.60;99.90
27978;DHT22;15314;49.248;6.968;2023-02-15T05:39:43;1.60;99.90
27978;DHT22;15314;49.248;6.968;2023-02-15T05:40:44;1.60;99.90
27978;DHT22;15314;49.248;6.968;2023-02-15T05:41:44;1.50;99.90
27978;DHT22;15314;49.248;6.968;2023-02-15T05:42:45;1.50;99.90
27978;DHT22;15314;49.248;6.968;2023-02-15T05:43:46;1.50;99.90
27978;DHT22;15314;49.248;6.968;2023-02-15T05:44:46;1.50;99.90
27978;DHT22;15314;49.248;6.968;2023-02-15T05:45:51;1.40;99.90
27978;DHT22;15314;49.248;6.968;2023-02-15T05:46:52;1.40;99.90
27978;DHT22;15314;49.248;6.968;2023-02-15T05:47:53;1.40;99.90
27978;DHT22;15314;49.248;6.968;2023-02-15T05:48:53;1.50;99.90
27978;DHT22;15314;49.248;6.968;2023-02-15T05:49:54;1.50;99.90
27978;DHT22;15314;49.248;6.968;2023-02-15T05:51:11;1.50;99.90
27978;DHT22;15314;49.248;6.968;2023-02-15T05:52:17;1.50;99.90
27978;DHT22;15314;49.248;6.968;2023-02-15T05:53:17;1.50;99.90
27978;DHT22;15314;49.248;6.968;2023-02-15T05:54:18;1.40;99.90
27978;DHT22;15314;49.248;6.968;2023-02-15T05:55:19;1.30;99.90
27978;DHT22;15314;49.248;6.968;2023-02-15T05:56:19;1.20;99.90
27978;DHT22;15314;49.248;6.968;2023-02-15T05:57:20;1.20;99.90
27978;DHT22;15314;49.248;6.968;2023-02-15T05:58:21;1.10;99.90
27978;DHT22;15314;49.248;6.968;2023-02-15T05:59:21;1.30;99.90
27978;DHT22;15314;49.248;6.968;2023-02-15T06:00:22;1.20;99.90
27978;DHT22;15314;49.248;6.968;2023-02-15T06:01:23;1.20;99.90
27978;DHT22;15314;49.248;6.968;2023-02-15T06:02:24;1.20;99.90
27978;DHT22;15314;49.248;6.968;2023-02-15T06:03:25;1.20;99.90
27978;DHT22;15314;49.248;6.968;2023-02-15T06:04:26;1.20;99.90
27978;DHT22;15314;49.248;6.968;2023-02-15T06:05:27;1.20;99.90
27978;DHT22;15314;49.248;6.968;2023-02-15T06:06:27;1.20;99.90
27978;DHT22;15314;49.248;6.968;2023-02-15T06:07:28;1.30;99.90
27978;DHT22;15314;49.248;6.968;2023-02-15T06:08:28;1.30;99.90
27978;DHT22;15314;49.248;6.968;2023-02-15T06:09:29;1.40;99.90
27978;DHT22;15314;49.248;6.968;2023-02-15T06:10:30;1.50;99.90
27978;DHT22;15314;49.248;6.968;2023-02-15T06:11:30;1.50;99.90
27978;DHT22;15314;49.248;6.968;2023-02-15T06:12:31;1.50;99.90
27978;DHT22;15314;49.248;6.968;2023-02-15T06:13:32;1.60;99.90
27978;DHT22;15314;49.248;6.968;2023-02-15T06:14:32;1.70;99.90
27978;DHT22;15314;49.248;6.968;2023-02-15T06:15:33;1.60;99.90
27978;DHT22;15314;49.248;6.968;2023-02-15T06:16:33;1.60;99.90
27978;DHT22;15314;49.248;6.968;2023-02-15T06:17:34;1.60;99.90
27978;DHT22;15314;49.248;6.968;2023-02-15T06:18:35;1.60;99.90
27978;DHT22;15314;49.248;6.968;2023-02-15T06:19:35;1.50;99.90
27978;DHT22;15314;49.248;6.968;2023-02-15T06:20:36;1.50;99.90
27978;DHT22;15314;49.248;6.968;2023-02-15T06:21:36;1.50;99.90
27978;DHT22;15314;49.248;6.968;2023-02-15T06:22:37;1.50;99.90
27978;DHT22;15314;49.248;6.968;2023-02-15T06:23:38;1.50;99.90
27978;DHT22;15314;49.248;6.968;2023-02-15T06:24:38;1.60;99.90
27978;DHT22;15314;49.248;6.968;2023-02-15T06:25:39;1.50;99.90
27978;DHT22;15314;49.248;6.968;2023-02-15T06:26:40;1.50;99.90
27978;DHT22;15314;49.248;6.968;2023-02-15T06:27:43;1.50;99.90
27978;DHT22;15314;49.248;6.968;2023-02-15T06:28:44;1.60;99.90
27978;DHT22;15314;49.248;6.968;2023-02-15T06:29:44;1.60;99.90
27978;DHT22;15314;49.248;6.968;2023-02-15T06:30:45;1.60;99.90
27978;DHT22;15314;49.248;6.968;2023-02-15T06:31:46;1.60;99.90
27978;DHT22;15314;49.248;6.968;2023-02-15T06:32:46;1.60;99.90
27978;DHT22;15314;49.248;6.968;2023-02-15T06:33:47;1.60;99.90
27978;DHT22;15314;49.248;6.968;2023-02-15T06:34:47;1.70;99.90
27978;DHT22;15314;49.248;6.968;2023-02-15T06:35:48;1.80;99.90
27978;DHT22;15314;49.248;6.968;2023-02-15T06:36:48;1.70;99.90
27978;DHT22;15314;49.248;6.968;2023-02-15T06:37:49;1.70;99.90
27978;DHT22;15314;49.248;6.968;2023-02-15T06:38:50;1.70;99.90
27978;DHT22;15314;49.248;6.968;2023-02-15T06:39:50;1.80;99.90
27978;DHT22;15314;49.248;6.968;2023-02-15T06:40:51;1.70;99.90
27978;DHT22;15314;49.248;6.968;2023-02-15T06:41:52;1.70;99.90
27978;DHT22;15314;49.248;6.968;2023-02-15T06:42:52;1.70;99.90
27978;DHT22;15314;49.248;6.968;2023-02-15T06:43:53;1.70;99.90
27978;DHT22;15314;49.248;6.968;2023-02-15T06:44:53;1.60;99.90
27978;DHT22;15314;49.248;6.968;2023-02-15T06:45:54;1.50;99.90
27978;DHT22;15314;49.248;6.968;2023-02-15T06:46:55;1.60;99.90
27978;DHT22;15314;49.248;6.968;2023-02-15T06:47:55;1.60;99.90
27978;DHT22;15314;49.248;6.968;2023-02-15T06:48:56;1.70;99.90
27978;DHT22;15314;49.248;6.968;2023-02-15T06:49:56;1.60;99.90
27978;DHT22;15314;49.248;6.968;2023-02-15T06:50:57;1.40;99.90
27978;DHT22;15314;49.248;6.968;2023-02-15T06:51:58;1.40;99.90
27978;DHT22;15314;49.248;6.968;2023-02-15T06:52:59;1.40;99.90
27978;DHT22;15314;49.248;6.968;2023-02-15T06:53:59;1.40;99.90
27978;DHT22;15314;49.248;6.968;2023-02-15T06:55:00;1.40;99.90
27978;DHT22;15314;49.248;6.968;2023-02-15T06:56:02;1.40;99.90
27978;DHT22;15314;49.248;6.968;2023-02-15T06:57:03;1.40;99.90
27978;DHT22;15314;49.248;6.968;2023-02-15T06:58:03;1.50;99.90
27978;DHT22;15314;49.248;6.968;2023-02-15T06:59:04;1.50;99.90
27978;DHT22;15314;49.248;6.968;2023-02-15T07:00:05;1.60;99.90
27978;DHT22;15314;49.248;6.968;2023-02-15T07:01:06;1.60;99.90
27978;DHT22;15314;49.248;6.968;2023-02-15T07:02:11;1.70;99.90
27978;DHT22;15314;49.248;6.968;2023-02-15T07:03:13;1.80;99.90
27978;DHT22;15314;49.248;6.968;2023-02-15T07:04:15;1.80;99.90
27978;DHT22;15314;49.248;6.968;2023-02-15T07:05:15;1.80;99.90
27978;DHT22;15314;49.248;6.968;2023-02-15T07:06:16;1.80;99.90
27978;DHT22;15314;49.248;6.968;2023-02-15T07:07:17;1.80;99.90
27978;DHT22;15314;49.248;6.968;2023-02-15T07:08:18;1.90;99.90
27978;DHT22;15314;49.248;6.968;2023-02-15T07:09:20;1.90;99.90
27978;DHT22;15314;49.248;6.968;2023-02-15T07:10:21;2.00;99.90
27978;DHT22;15314;49.248;6.968;2023-02-15T07:11:21;2.00;99.90